Mount Dora, Florida
Current Conditions -  °F | °C
As of 1:53 PM on Wednesday 26 Nov 2014 (Local Time) from KLEE Reporting Station
Clear Clear  
Wind Chill: 58°   Ceiling: Unl
Heat Index: 58°   Visibility: 10mi
Dew Point: 47°   Wind: 12mph
Humidity: 67%   Direction: 310°NW
Pressure: 30.14"   Gusts: NA
Location:  28.8°N, 81.64°W
Report Text: KLEE 261853Z 31010KT 10SM CLR 14/08 A3014 RMK AO2 SLP205 T01440083
Loading
Personal Weather Stations






























Interactive Weather Map New forecast layout! Learn more

10-Day Weather Forecast

Advertisements
Track Severe Weather on mobile